sensor_id;sensor_type;location;lat;lon;timestamp;P1;durP1;ratioP1;P2;durP2;ratioP2
18138;SDS011;9195;53.176;9.486;2022-07-18T00:00:30;12.80;;;12.20;;
18138;SDS011;9195;53.176;9.486;2022-07-18T00:02:56;13.33;;;12.73;;
18138;SDS011;9195;53.176;9.486;2022-07-18T00:05:21;13.00;;;12.40;;
18138;SDS011;9195;53.176;9.486;2022-07-18T00:07:47;13.10;;;12.50;;
18138;SDS011;9195;53.176;9.486;2022-07-18T00:10:13;13.00;;;12.40;;
18138;SDS011;9195;53.176;9.486;2022-07-18T00:12:38;12.57;;;12.07;;
18138;SDS011;9195;53.176;9.486;2022-07-18T00:15:04;12.80;;;12.20;;
18138;SDS011;9195;53.176;9.486;2022-07-18T00:17:30;13.00;;;12.40;;
18138;SDS011;9195;53.176;9.486;2022-07-18T00:19:56;12.93;;;12.33;;
18138;SDS011;9195;53.176;9.486;2022-07-18T00:22:21;12.67;;;12.10;;
18138;SDS011;9195;53.176;9.486;2022-07-18T00:24:47;12.70;;;12.17;;
18138;SDS011;9195;53.176;9.486;2022-07-18T00:27:12;12.63;;;12.10;;
18138;SDS011;9195;53.176;9.486;2022-07-18T00:29:38;12.80;;;12.20;;
18138;SDS011;9195;53.176;9.486;2022-07-18T00:32:04;12.60;;;12.10;;
18138;SDS011;9195;53.176;9.486;2022-07-18T00:34:31;12.50;;;12.00;;
18138;SDS011;9195;53.176;9.486;2022-07-18T00:36:57;12.40;;;11.90;;
18138;SDS011;9195;53.176;9.486;2022-07-18T00:39:23;12.50;;;12.00;;
18138;SDS011;9195;53.176;9.486;2022-07-18T00:41:49;12.37;;;11.87;;
18138;SDS011;9195;53.176;9.486;2022-07-18T00:44:16;12.80;;;12.20;;
18138;SDS011;9195;53.176;9.486;2022-07-18T00:46:45;12.60;;;12.10;;
18138;SDS011;9195;53.176;9.486;2022-07-18T00:49:11;12.80;;;12.20;;
18138;SDS011;9195;53.176;9.486;2022-07-18T00:51:37;12.50;;;12.00;;
18138;SDS011;9195;53.176;9.486;2022-07-18T00:54:03;13.00;;;12.40;;
18138;SDS011;9195;53.176;9.486;2022-07-18T00:56:29;12.77;;;12.20;;
18138;SDS011;9195;53.176;9.486;2022-07-18T00:58:55;12.97;;;12.37;;
18138;SDS011;9195;53.176;9.486;2022-07-18T01:01:20;12.63;;;12.13;;
18138;SDS011;9195;53.176;9.486;2022-07-18T01:04:05;12.37;;;11.87;;
18138;SDS011;9195;53.176;9.486;2022-07-18T01:06:30;12.37;;;11.87;;
18138;SDS011;9195;53.176;9.486;2022-07-18T01:08:56;12.60;;;12.10;;
18138;SDS011;9195;53.176;9.486;2022-07-18T01:11:22;12.97;;;12.37;;
18138;SDS011;9195;53.176;9.486;2022-07-18T01:13:48;12.37;;;11.87;;
18138;SDS011;9195;53.176;9.486;2022-07-18T01:16:15;12.70;;;12.17;;
18138;SDS011;9195;53.176;9.486;2022-07-18T01:18:49;12.50;;;12.00;;
18138;SDS011;9195;53.176;9.486;2022-07-18T01:21:15;12.57;;;12.07;;
18138;SDS011;9195;53.176;9.486;2022-07-18T01:23:41;12.53;;;12.03;;
18138;SDS011;9195;53.176;9.486;2022-07-18T01:26:07;12.73;;;12.20;;
18138;SDS011;9195;53.176;9.486;2022-07-18T01:28:33;13.07;;;12.47;;
18138;SDS011;9195;53.176;9.486;2022-07-18T01:31:01;12.47;;;11.97;;
18138;SDS011;9195;53.176;9.486;2022-07-18T01:33:26;12.90;;;12.30;;
18138;SDS011;9195;53.176;9.486;2022-07-18T01:35:52;12.90;;;12.30;;
18138;SDS011;9195;53.176;9.486;2022-07-18T01:38:18;12.80;;;12.20;;
18138;SDS011;9195;53.176;9.486;2022-07-18T01:40:44;13.00;;;12.40;;
18138;SDS011;9195;53.176;9.486;2022-07-18T01:43:10;13.00;;;12.40;;
18138;SDS011;9195;53.176;9.486;2022-07-18T01:45:36;13.10;;;12.50;;
18138;SDS011;9195;53.176;9.486;2022-07-18T01:48:02;12.83;;;12.23;;
18138;SDS011;9195;53.176;9.486;2022-07-18T01:50:28;13.17;;;12.57;;
18138;SDS011;9195;53.176;9.486;2022-07-18T01:52:53;12.90;;;12.30;;
18138;SDS011;9195;53.176;9.486;2022-07-18T01:55:19;13.10;;;12.50;;
18138;SDS011;9195;53.176;9.486;2022-07-18T01:57:45;12.43;;;11.93;;
18138;SDS011;9195;53.176;9.486;2022-07-18T02:00:11;12.60;;;12.10;;
18138;SDS011;9195;53.176;9.486;2022-07-18T02:02:37;12.93;;;12.33;;
18138;SDS011;9195;53.176;9.486;2022-07-18T02:05:04;13.20;;;12.60;;
18138;SDS011;9195;53.176;9.486;2022-07-18T02:07:32;12.87;;;12.27;;
18138;SDS011;9195;53.176;9.486;2022-07-18T02:09:58;12.60;;;12.10;;
18138;SDS011;9195;53.176;9.486;2022-07-18T02:12:24;12.97;;;12.37;;
18138;SDS011;9195;53.176;9.486;2022-07-18T02:14:50;12.53;;;12.03;;
18138;SDS011;9195;53.176;9.486;2022-07-18T02:17:16;12.43;;;11.93;;
18138;SDS011;9195;53.176;9.486;2022-07-18T02:19:44;12.60;;;12.10;;
18138;SDS011;9195;53.176;9.486;2022-07-18T02:22:09;12.87;;;12.27;;
18138;SDS011;9195;53.176;9.486;2022-07-18T02:24:35;12.50;;;12.00;;
18138;SDS011;9195;53.176;9.486;2022-07-18T02:27:01;12.40;;;11.90;;
18138;SDS011;9195;53.176;9.486;2022-07-18T02:29:27;12.50;;;12.00;;
18138;SDS011;9195;53.176;9.486;2022-07-18T02:31:52;11.80;;;11.30;;
18138;SDS011;9195;53.176;9.486;2022-07-18T02:34:18;12.10;;;11.60;;
18138;SDS011;9195;53.176;9.486;2022-07-18T02:36:43;12.27;;;11.77;;
18138;SDS011;9195;53.176;9.486;2022-07-18T02:39:09;12.17;;;11.67;;
18138;SDS011;9195;53.176;9.486;2022-07-18T02:41:35;12.13;;;11.63;;
18138;SDS011;9195;53.176;9.486;2022-07-18T02:44:01;12.00;;;11.50;;
18138;SDS011;9195;53.176;9.486;2022-07-18T02:46:27;11.80;;;11.30;;
18138;SDS011;9195;53.176;9.486;2022-07-18T02:48:52;11.97;;;11.47;;
18138;SDS011;9195;53.176;9.486;2022-07-18T02:51:18;11.90;;;11.40;;
18138;SDS011;9195;53.176;9.486;2022-07-18T02:53:44;12.00;;;11.50;;
18138;SDS011;9195;53.176;9.486;2022-07-18T02:56:09;11.97;;;11.47;;
18138;SDS011;9195;53.176;9.486;2022-07-18T02:58:35;11.97;;;11.47;;
18138;SDS011;9195;53.176;9.486;2022-07-18T03:01:01;11.83;;;11.33;;
18138;SDS011;9195;53.176;9.486;2022-07-18T03:03:26;11.50;;;11.00;;
18138;SDS011;9195;53.176;9.486;2022-07-18T03:05:52;11.20;;;10.70;;
18138;SDS011;9195;53.176;9.486;2022-07-18T03:08:17;11.37;;;10.87;;
18138;SDS011;9195;53.176;9.486;2022-07-18T03:10:43;11.27;;;10.77;;
18138;SDS011;9195;53.176;9.486;2022-07-18T03:13:09;11.40;;;10.90;;
18138;SDS011;9195;53.176;9.486;2022-07-18T03:15:36;11.43;;;10.93;;
18138;SDS011;9195;53.176;9.486;2022-07-18T03:18:02;11.27;;;10.77;;
18138;SDS011;9195;53.176;9.486;2022-07-18T03:20:28;11.50;;;11.00;;
18138;SDS011;9195;53.176;9.486;2022-07-18T03:22:54;11.97;;;11.47;;
18138;SDS011;9195;53.176;9.486;2022-07-18T03:25:20;12.03;;;11.53;;
18138;SDS011;9195;53.176;9.486;2022-07-18T03:27:46;11.93;;;11.43;;
18138;SDS011;9195;53.176;9.486;2022-07-18T03:30:12;12.03;;;11.53;;
18138;SDS011;9195;53.176;9.486;2022-07-18T03:32:38;11.90;;;11.40;;
18138;SDS011;9195;53.176;9.486;2022-07-18T03:35:04;12.00;;;11.50;;
18138;SDS011;9195;53.176;9.486;2022-07-18T03:37:30;12.10;;;11.60;;
18138;SDS011;9195;53.176;9.486;2022-07-18T03:39:55;12.13;;;11.63;;
18138;SDS011;9195;53.176;9.486;2022-07-18T03:42:21;12.03;;;11.53;;
18138;SDS011;9195;53.176;9.486;2022-07-18T03:44:47;11.73;;;11.23;;
18138;SDS011;9195;53.176;9.486;2022-07-18T03:47:12;11.53;;;11.03;;
18138;SDS011;9195;53.176;9.486;2022-07-18T03:49:38;12.10;;;11.60;;
18138;SDS011;9195;53.176;9.486;2022-07-18T03:52:04;11.80;;;11.30;;
18138;SDS011;9195;53.176;9.486;2022-07-18T03:54:29;11.50;;;11.00;;
18138;SDS011;9195;53.176;9.486;2022-07-18T03:56:55;11.27;;;10.77;;
18138;SDS011;9195;53.176;9.486;2022-07-18T03:59:20;11.90;;;11.40;;
18138;SDS011;9195;53.176;9.486;2022-07-18T04:01:46;11.77;;;11.27;;
18138;SDS011;9195;53.176;9.486;2022-07-18T04:04:12;11.60;;;11.10;;
18138;SDS011;9195;53.176;9.486;2022-07-18T04:06:37;11.53;;;11.03;;
18138;SDS011;9195;53.176;9.486;2022-07-18T04:09:03;11.90;;;11.40;;
18138;SDS011;9195;53.176;9.486;2022-07-18T04:11:29;11.70;;;11.20;;
18138;SDS011;9195;53.176;9.486;2022-07-18T04:13:54;11.50;;;11.00;;
18138;SDS011;9195;53.176;9.486;2022-07-18T04:16:20;11.80;;;11.30;;
18138;SDS011;9195;53.176;9.486;2022-07-18T04:18:46;11.60;;;11.10;;
18138;SDS011;9195;53.176;9.486;2022-07-18T04:21:12;11.77;;;11.27;;
18138;SDS011;9195;53.176;9.486;2022-07-18T04:23:38;11.60;;;11.10;;
18138;SDS011;9195;53.176;9.486;2022-07-18T04:26:04;11.50;;;11.00;;
18138;SDS011;9195;53.176;9.486;2022-07-18T04:28:30;11.80;;;11.30;;
18138;SDS011;9195;53.176;9.486;2022-07-18T04:30:55;11.67;;;11.17;;
18138;SDS011;9195;53.176;9.486;2022-07-18T04:33:21;11.63;;;11.13;;
18138;SDS011;9195;53.176;9.486;2022-07-18T04:35:47;11.53;;;11.03;;
18138;SDS011;9195;53.176;9.486;2022-07-18T04:38:13;11.30;;;10.80;;
18138;SDS011;9195;53.176;9.486;2022-07-18T04:40:39;10.70;;;10.30;;
18138;SDS011;9195;53.176;9.486;2022-07-18T04:43:05;11.10;;;10.60;;
18138;SDS011;9195;53.176;9.486;2022-07-18T04:45:31;11.17;;;10.67;;
18138;SDS011;9195;53.176;9.486;2022-07-18T04:47:58;11.33;;;10.83;;
18138;SDS011;9195;53.176;9.486;2022-07-18T04:50:23;11.60;;;11.10;;
18138;SDS011;9195;53.176;9.486;2022-07-18T04:52:50;11.50;;;11.00;;
18138;SDS011;9195;53.176;9.486;2022-07-18T04:55:17;11.70;;;11.20;;
18138;SDS011;9195;53.176;9.486;2022-07-18T04:57:44;11.20;;;10.70;;
18138;SDS011;9195;53.176;9.486;2022-07-18T05:00:15;11.83;;;11.33;;
18138;SDS011;9195;53.176;9.486;2022-07-18T05:02:42;12.23;;;11.73;;
18138;SDS011;9195;53.176;9.486;2022-07-18T05:05:09;11.63;;;11.13;;
18138;SDS011;9195;53.176;9.486;2022-07-18T05:07:36;12.93;;;12.33;;
18138;SDS011;9195;53.176;9.486;2022-07-18T05:10:03;13.27;;;12.67;;
18138;SDS011;9195;53.176;9.486;2022-07-18T05:12:32;13.10;;;12.50;;
18138;SDS011;9195;53.176;9.486;2022-07-18T05:14:59;13.10;;;12.50;;
18138;SDS011;9195;53.176;9.486;2022-07-18T05:17:25;13.10;;;12.50;;
18138;SDS011;9195;53.176;9.486;2022-07-18T05:19:50;13.23;;;12.63;;
18138;SDS011;9195;53.176;9.486;2022-07-18T05:22:16;13.20;;;12.60;;
18138;SDS011;9195;53.176;9.486;2022-07-18T05:24:42;12.90;;;12.30;;
18138;SDS011;9195;53.176;9.486;2022-07-18T05:27:07;13.10;;;12.50;;
18138;SDS011;9195;53.176;9.486;2022-07-18T05:29:33;12.67;;;12.17;;
18138;SDS011;9195;53.176;9.486;2022-07-18T05:31:59;13.10;;;12.50;;
18138;SDS011;9195;53.176;9.486;2022-07-18T05:34:25;13.17;;;12.57;;
18138;SDS011;9195;53.176;9.486;2022-07-18T05:36:50;13.20;;;12.60;;
18138;SDS011;9195;53.176;9.486;2022-07-18T05:39:16;13.60;;;13.00;;
18138;SDS011;9195;53.176;9.486;2022-07-18T05:41:41;13.47;;;12.87;;
18138;SDS011;9195;53.176;9.486;2022-07-18T05:44:07;13.23;;;12.63;;
18138;SDS011;9195;53.176;9.486;2022-07-18T05:46:32;12.77;;;12.27;;
18138;SDS011;9195;53.176;9.486;2022-07-18T05:48:58;13.40;;;12.80;;
18138;SDS011;9195;53.176;9.486;2022-07-18T05:51:24;13.40;;;12.80;;
18138;SDS011;9195;53.176;9.486;2022-07-18T05:53:49;13.20;;;12.60;;
18138;SDS011;9195;53.176;9.486;2022-07-18T05:56:15;13.53;;;12.93;;
18138;SDS011;9195;53.176;9.486;2022-07-18T05:58:41;13.20;;;12.60;;
18138;SDS011;9195;53.176;9.486;2022-07-18T06:01:06;14.07;;;13.47;;
18138;SDS011;9195;53.176;9.486;2022-07-18T06:03:32;14.20;;;13.60;;
18138;SDS011;9195;53.176;9.486;2022-07-18T06:05:57;13.80;;;13.20;;
18138;SDS011;9195;53.176;9.486;2022-07-18T06:08:23;13.80;;;13.20;;
18138;SDS011;9195;53.176;9.486;2022-07-18T06:10:49;14.13;;;13.53;;
18138;SDS011;9195;53.176;9.486;2022-07-18T06:13:14;14.27;;;13.67;;
18138;SDS011;9195;53.176;9.486;2022-07-18T06:15:40;14.20;;;13.60;;
18138;SDS011;9195;53.176;9.486;2022-07-18T06:18:05;14.73;;;14.03;;
18138;SDS011;9195;53.176;9.486;2022-07-18T06:20:31;14.47;;;13.80;;
18138;SDS011;9195;53.176;9.486;2022-07-18T06:22:56;14.30;;;13.70;;
18138;SDS011;9195;53.176;9.486;2022-07-18T06:25:22;14.70;;;14.00;;
18138;SDS011;9195;53.176;9.486;2022-07-18T06:27:47;14.53;;;13.87;;
18138;SDS011;9195;53.176;9.486;2022-07-18T06:30:13;14.43;;;13.80;;
18138;SDS011;9195;53.176;9.486;2022-07-18T06:32:39;14.90;;;14.20;;
18138;SDS011;9195;53.176;9.486;2022-07-18T06:35:05;14.30;;;13.70;;
18138;SDS011;9195;53.176;9.486;2022-07-18T06:37:32;14.50;;;13.90;;
18138;SDS011;9195;53.176;9.486;2022-07-18T06:39:58;15.07;;;14.37;;
18138;SDS011;9195;53.176;9.486;2022-07-18T06:42:23;14.50;;;13.87;;
18138;SDS011;9195;53.176;9.486;2022-07-18T06:44:49;14.33;;;13.73;;
18138;SDS011;9195;53.176;9.486;2022-07-18T06:47:15;14.43;;;13.83;;
18138;SDS011;9195;53.176;9.486;2022-07-18T06:49:40;14.97;;;14.27;;
18138;SDS011;9195;53.176;9.486;2022-07-18T06:52:06;15.27;;;14.57;;
18138;SDS011;9195;53.176;9.486;2022-07-18T06:54:32;15.00;;;14.30;;
18138;SDS011;9195;53.176;9.486;2022-07-18T06:57:00;14.87;;;14.17;;
18138;SDS011;9195;53.176;9.486;2022-07-18T06:59:28;14.97;;;14.27;;
18138;SDS011;9195;53.176;9.486;2022-07-18T07:01:53;14.50;;;13.90;;
18138;SDS011;9195;53.176;9.486;2022-07-18T07:04:19;14.73;;;14.03;;
18138;SDS011;9195;53.176;9.486;2022-07-18T07:06:44;14.20;;;13.60;;
18138;SDS011;9195;53.176;9.486;2022-07-18T07:09:10;14.67;;;14.00;;
18138;SDS011;9195;53.176;9.486;2022-07-18T07:11:36;14.90;;;14.20;;
18138;SDS011;9195;53.176;9.486;2022-07-18T07:14:01;14.37;;;13.77;;
18138;SDS011;9195;53.176;9.486;2022-07-18T07:16:27;14.90;;;14.20;;
18138;SDS011;9195;53.176;9.486;2022-07-18T07:18:53;14.70;;;14.00;;
18138;SDS011;9195;53.176;9.486;2022-07-18T07:21:19;15.13;;;14.43;;
18138;SDS011;9195;53.176;9.486;2022-07-18T07:23:44;15.67;;;14.97;;
18138;SDS011;9195;53.176;9.486;2022-07-18T07:26:10;15.17;;;14.47;;
18138;SDS011;9195;53.176;9.486;2022-07-18T07:28:35;15.23;;;14.53;;
18138;SDS011;9195;53.176;9.486;2022-07-18T07:31:01;14.70;;;14.00;;
18138;SDS011;9195;53.176;9.486;2022-07-18T07:33:26;14.97;;;14.27;;
18138;SDS011;9195;53.176;9.486;2022-07-18T07:35:52;15.17;;;14.47;;
18138;SDS011;9195;53.176;9.486;2022-07-18T07:38:17;14.73;;;14.03;;
18138;SDS011;9195;53.176;9.486;2022-07-18T07:40:44;15.10;;;14.40;;
18138;SDS011;9195;53.176;9.486;2022-07-18T07:43:11;15.37;;;14.67;;
18138;SDS011;9195;53.176;9.486;2022-07-18T07:45:38;14.90;;;14.20;;
18138;SDS011;9195;53.176;9.486;2022-07-18T07:48:05;14.70;;;14.00;;
18138;SDS011;9195;53.176;9.486;2022-07-18T07:50:31;15.17;;;14.47;;
18138;SDS011;9195;53.176;9.486;2022-07-18T07:52:57;15.20;;;14.50;;
18138;SDS011;9195;53.176;9.486;2022-07-18T07:55:23;15.17;;;14.47;;
18138;SDS011;9195;53.176;9.486;2022-07-18T07:57:50;15.20;;;14.50;;
18138;SDS011;9195;53.176;9.486;2022-07-18T08:00:16;15.03;;;14.33;;
18138;SDS011;9195;53.176;9.486;2022-07-18T08:02:58;15.00;;;14.30;;
18138;SDS011;9195;53.176;9.486;2022-07-18T08:05:29;14.80;;;14.10;;
18138;SDS011;9195;53.176;9.486;2022-07-18T08:07:57;15.30;;;14.60;;
18138;SDS011;9195;53.176;9.486;2022-07-18T08:10:24;15.60;;;14.90;;
18138;SDS011;9195;53.176;9.486;2022-07-18T08:12:50;15.70;;;15.00;;
18138;SDS011;9195;53.176;9.486;2022-07-18T08:15:15;14.80;;;14.10;;
18138;SDS011;9195;53.176;9.486;2022-07-18T08:17:41;14.93;;;14.23;;
18138;SDS011;9195;53.176;9.486;2022-07-18T08:20:06;15.30;;;14.60;;
18138;SDS011;9195;53.176;9.486;2022-07-18T08:22:33;15.30;;;14.60;;
18138;SDS011;9195;53.176;9.486;2022-07-18T08:24:59;14.90;;;14.20;;
18138;SDS011;9195;53.176;9.486;2022-07-18T08:27:25;15.63;;;14.93;;
18138;SDS011;9195;53.176;9.486;2022-07-18T08:29:51;15.43;;;14.73;;
18138;SDS011;9195;53.176;9.486;2022-07-18T08:32:16;15.87;;;15.17;;
18138;SDS011;9195;53.176;9.486;2022-07-18T08:34:42;15.73;;;15.03;;
18138;SDS011;9195;53.176;9.486;2022-07-18T08:37:07;15.80;;;15.10;;
18138;SDS011;9195;53.176;9.486;2022-07-18T08:39:33;16.13;;;15.33;;
18138;SDS011;9195;53.176;9.486;2022-07-18T08:42:00;15.77;;;15.07;;
18138;SDS011;9195;53.176;9.486;2022-07-18T08:44:27;16.05;;;15.25;;
18138;SDS011;9195;53.176;9.486;2022-07-18T08:46:53;15.52;;;14.82;;
18138;SDS011;9195;53.176;9.486;2022-07-18T08:49:22;16.00;;;15.20;;
18138;SDS011;9195;53.176;9.486;2022-07-18T08:51:48;16.17;;;15.38;;
18138;SDS011;9195;53.176;9.486;2022-07-18T08:54:14;15.77;;;15.05;;
18138;SDS011;9195;53.176;9.486;2022-07-18T08:56:40;16.15;;;15.35;;
18138;SDS011;9195;53.176;9.486;2022-07-18T08:59:06;16.25;;;15.45;;
18138;SDS011;9195;53.176;9.486;2022-07-18T09:01:32;15.18;;;14.48;;
18138;SDS011;9195;53.176;9.486;2022-07-18T09:03:58;15.23;;;14.52;;
18138;SDS011;9195;53.176;9.486;2022-07-18T09:06:47;15.75;;;15.00;;
18138;SDS011;9195;53.176;9.486;2022-07-18T09:09:14;16.05;;;15.25;;
18138;SDS011;9195;53.176;9.486;2022-07-18T09:11:51;16.00;;;15.20;;
18138;SDS011;9195;53.176;9.486;2022-07-18T09:14:28;15.98;;;15.18;;
18138;SDS011;9195;53.176;9.486;2022-07-18T09:17:15;16.17;;;15.38;;
18138;SDS011;9195;53.176;9.486;2022-07-18T09:19:57;16.27;;;15.48;;
18138;SDS011;9195;53.176;9.486;2022-07-18T09:22:26;16.50;;;15.70;;
18138;SDS011;9195;53.176;9.486;2022-07-18T09:27:37;15.25;;;14.55;;
18138;SDS011;9195;53.176;9.486;2022-07-18T09:30:24;15.70;;;15.00;;
18138;SDS011;9195;53.176;9.486;2022-07-18T09:33:14;15.32;;;14.63;;
18138;SDS011;9195;53.176;9.486;2022-07-18T09:38:16;15.52;;;14.82;;
18138;SDS011;9195;53.176;9.486;2022-07-18T09:40:47;15.70;;;15.00;;
18138;SDS011;9195;53.176;9.486;2022-07-18T09:43:15;15.52;;;14.82;;
18138;SDS011;9195;53.176;9.486;2022-07-18T09:45:43;15.40;;;14.70;;
18138;SDS011;9195;53.176;9.486;2022-07-18T09:48:13;15.68;;;14.98;;
18138;SDS011;9195;53.176;9.486;2022-07-18T09:50:43;15.73;;;15.02;;
18138;SDS011;9195;53.176;9.486;2022-07-18T09:53:19;16.00;;;15.30;;
18138;SDS011;9195;53.176;9.486;2022-07-18T09:55:56;16.40;;;15.60;;
18138;SDS011;9195;53.176;9.486;2022-07-18T09:58:27;15.90;;;15.20;;
18138;SDS011;9195;53.176;9.486;2022-07-18T10:00:58;15.98;;;15.27;;
18138;SDS011;9195;53.176;9.486;2022-07-18T10:03:26;15.68;;;14.98;;
18138;SDS011;9195;53.176;9.486;2022-07-18T10:05:52;15.80;;;15.10;;
18138;SDS011;9195;53.176;9.486;2022-07-18T10:08:20;16.38;;;15.57;;
18138;SDS011;9195;53.176;9.486;2022-07-18T10:10:48;15.52;;;14.82;;
18138;SDS011;9195;53.176;9.486;2022-07-18T10:13:15;15.73;;;15.02;;
18138;SDS011;9195;53.176;9.486;2022-07-18T10:15:43;15.70;;;15.00;;
18138;SDS011;9195;53.176;9.486;2022-07-18T10:18:11;15.88;;;15.18;;
18138;SDS011;9195;53.176;9.486;2022-07-18T10:20:39;16.20;;;15.50;;
18138;SDS011;9195;53.176;9.486;2022-07-18T10:23:15;16.50;;;15.70;;
18138;SDS011;9195;53.176;9.486;2022-07-18T10:31:20;15.93;;;15.23;;
18138;SDS011;9195;53.176;9.486;2022-07-18T10:33:48;15.93;;;15.23;;
18138;SDS011;9195;53.176;9.486;2022-07-18T10:39:05;15.90;;;15.20;;
18138;SDS011;9195;53.176;9.486;2022-07-18T10:41:33;15.70;;;15.00;;
18138;SDS011;9195;53.176;9.486;2022-07-18T11:00:03;15.95;;;15.25;;
18138;SDS011;9195;53.176;9.486;2022-07-18T11:08:37;15.93;;;15.23;;
18138;SDS011;9195;53.176;9.486;2022-07-18T11:16:21;16.08;;;15.38;;
18138;SDS011;9195;53.176;9.486;2022-07-18T11:21:19;16.20;;;15.50;;
18138;SDS011;9195;53.176;9.486;2022-07-18T11:23:47;16.40;;;15.60;;
18138;SDS011;9195;53.176;9.486;2022-07-18T11:26:21;16.38;;;15.57;;
18138;SDS011;9195;53.176;9.486;2022-07-18T11:28:49;15.98;;;15.27;;
18138;SDS011;9195;53.176;9.486;2022-07-18T11:31:32;16.00;;;15.30;;
18138;SDS011;9195;53.176;9.486;2022-07-18T11:34:28;16.35;;;15.65;;
18138;SDS011;9195;53.176;9.486;2022-07-18T11:36:53;15.85;;;15.15;;
18138;SDS011;9195;53.176;9.486;2022-07-18T11:39:29;16.10;;;15.40;;
18138;SDS011;9195;53.176;9.486;2022-07-18T11:41:56;15.63;;;14.93;;
18138;SDS011;9195;53.176;9.486;2022-07-18T11:44:22;15.88;;;15.18;;
18138;SDS011;9195;53.176;9.486;2022-07-18T11:47:04;15.93;;;15.23;;
18138;SDS011;9195;53.176;9.486;2022-07-18T11:49:32;15.88;;;15.18;;
18138;SDS011;9195;53.176;9.486;2022-07-18T11:51:59;16.40;;;15.70;;
18138;SDS011;9195;53.176;9.486;2022-07-18T11:54:25;15.73;;;15.02;;
18138;SDS011;9195;53.176;9.486;2022-07-18T11:56:53;15.80;;;15.10;;
18138;SDS011;9195;53.176;9.486;2022-07-18T11:59:20;15.52;;;14.82;;
18138;SDS011;9195;53.176;9.486;2022-07-18T12:01:46;16.10;;;15.40;;
18138;SDS011;9195;53.176;9.486;2022-07-18T12:04:21;15.70;;;15.00;;
18138;SDS011;9195;53.176;9.486;2022-07-18T12:09:38;16.13;;;15.43;;
18138;SDS011;9195;53.176;9.486;2022-07-18T12:12:07;16.00;;;15.30;;
18138;SDS011;9195;53.176;9.486;2022-07-18T12:14:36;15.88;;;15.18;;
18138;SDS011;9195;53.176;9.486;2022-07-18T12:17:04;15.50;;;14.80;;
18138;SDS011;9195;53.176;9.486;2022-07-18T12:19:35;16.35;;;15.60;;
18138;SDS011;9195;53.176;9.486;2022-07-18T12:24:29;15.70;;;15.00;;
18138;SDS011;9195;53.176;9.486;2022-07-18T12:27:15;16.35;;;15.55;;
18138;SDS011;9195;53.176;9.486;2022-07-18T12:32:41;16.50;;;15.70;;
18138;SDS011;9195;53.176;9.486;2022-07-18T12:35:22;15.98;;;15.27;;
18138;SDS011;9195;53.176;9.486;2022-07-18T12:40:42;16.08;;;15.38;;
18138;SDS011;9195;53.176;9.486;2022-07-18T12:43:10;16.60;;;15.80;;
18138;SDS011;9195;53.176;9.486;2022-07-18T12:45:37;16.50;;;15.70;;
18138;SDS011;9195;53.176;9.486;2022-07-18T12:48:04;15.98;;;15.27;;
18138;SDS011;9195;53.176;9.486;2022-07-18T12:50:31;16.42;;;15.65;;
18138;SDS011;9195;53.176;9.486;2022-07-18T12:52:57;15.70;;;15.00;;
18138;SDS011;9195;53.176;9.486;2022-07-18T12:55:23;15.75;;;15.05;;
18138;SDS011;9195;53.176;9.486;2022-07-18T12:57:49;15.82;;;15.13;;
18138;SDS011;9195;53.176;9.486;2022-07-18T13:00:15;15.95;;;15.25;;
18138;SDS011;9195;53.176;9.486;2022-07-18T13:02:44;16.00;;;15.25;;
18138;SDS011;9195;53.176;9.486;2022-07-18T13:05:10;16.48;;;15.68;;
18138;SDS011;9195;53.176;9.486;2022-07-18T13:07:36;16.10;;;15.32;;
18138;SDS011;9195;53.176;9.486;2022-07-18T13:10:02;15.90;;;15.20;;
18138;SDS011;9195;53.176;9.486;2022-07-18T13:12:28;16.05;;;15.35;;
18138;SDS011;9195;53.176;9.486;2022-07-18T13:14:54;15.88;;;15.18;;
18138;SDS011;9195;53.176;9.486;2022-07-18T13:17:19;15.70;;;15.00;;
18138;SDS011;9195;53.176;9.486;2022-07-18T13:19:45;15.77;;;15.07;;
18138;SDS011;9195;53.176;9.486;2022-07-18T13:22:12;16.00;;;15.30;;
18138;SDS011;9195;53.176;9.486;2022-07-18T13:24:37;16.48;;;15.68;;
18138;SDS011;9195;53.176;9.486;2022-07-18T13:27:03;16.50;;;15.75;;
18138;SDS011;9195;53.176;9.486;2022-07-18T13:29:29;16.40;;;15.70;;
18138;SDS011;9195;53.176;9.486;2022-07-18T13:31:55;15.55;;;14.85;;
18138;SDS011;9195;53.176;9.486;2022-07-18T13:34:21;15.82;;;15.13;;
18138;SDS011;9195;53.176;9.486;2022-07-18T13:36:48;15.43;;;14.73;;
18138;SDS011;9195;53.176;9.486;2022-07-18T13:39:15;15.63;;;14.93;;
18138;SDS011;9195;53.176;9.486;2022-07-18T13:41:40;15.52;;;14.82;;
18138;SDS011;9195;53.176;9.486;2022-07-18T13:44:06;15.43;;;14.73;;
18138;SDS011;9195;53.176;9.486;2022-07-18T13:46:31;15.38;;;14.68;;
18138;SDS011;9195;53.176;9.486;2022-07-18T13:48:57;15.50;;;14.80;;
18138;SDS011;9195;53.176;9.486;2022-07-18T13:51:23;15.30;;;14.60;;
18138;SDS011;9195;53.176;9.486;2022-07-18T13:53:48;15.73;;;15.02;;
18138;SDS011;9195;53.176;9.486;2022-07-18T13:56:14;15.88;;;15.18;;
18138;SDS011;9195;53.176;9.486;2022-07-18T13:58:39;15.80;;;15.10;;
18138;SDS011;9195;53.176;9.486;2022-07-18T14:01:05;15.85;;;15.15;;
18138;SDS011;9195;53.176;9.486;2022-07-18T14:03:31;15.57;;;14.88;;
18138;SDS011;9195;53.176;9.486;2022-07-18T14:05:57;16.08;;;15.38;;
18138;SDS011;9195;53.176;9.486;2022-07-18T14:08:22;15.45;;;14.75;;
18138;SDS011;9195;53.176;9.486;2022-07-18T14:10:48;15.90;;;15.20;;
18138;SDS011;9195;53.176;9.486;2022-07-18T14:13:14;16.02;;;15.32;;
18138;SDS011;9195;53.176;9.486;2022-07-18T14:15:39;15.88;;;15.18;;
18138;SDS011;9195;53.176;9.486;2022-07-18T14:18:05;15.50;;;14.80;;
18138;SDS011;9195;53.176;9.486;2022-07-18T14:20:31;16.13;;;15.43;;
18138;SDS011;9195;53.176;9.486;2022-07-18T14:22:57;15.40;;;14.70;;
18138;SDS011;9195;53.176;9.486;2022-07-18T14:25:22;15.70;;;15.00;;
18138;SDS011;9195;53.176;9.486;2022-07-18T14:27:48;15.75;;;15.05;;
18138;SDS011;9195;53.176;9.486;2022-07-18T14:30:14;15.60;;;14.90;;
18138;SDS011;9195;53.176;9.486;2022-07-18T14:32:42;16.00;;;15.30;;
18138;SDS011;9195;53.176;9.486;2022-07-18T14:35:08;15.63;;;14.93;;
18138;SDS011;9195;53.176;9.486;2022-07-18T14:37:34;15.73;;;15.02;;
18138;SDS011;9195;53.176;9.486;2022-07-18T14:40:00;15.73;;;15.02;;
18138;SDS011;9195;53.176;9.486;2022-07-18T14:42:27;15.30;;;14.60;;
18138;SDS011;9195;53.176;9.486;2022-07-18T14:44:53;15.65;;;14.95;;
18138;SDS011;9195;53.176;9.486;2022-07-18T14:47:18;15.80;;;15.10;;
18138;SDS011;9195;53.176;9.486;2022-07-18T14:49:44;15.68;;;14.98;;
18138;SDS011;9195;53.176;9.486;2022-07-18T14:52:10;15.77;;;15.07;;
18138;SDS011;9195;53.176;9.486;2022-07-18T14:54:36;15.85;;;15.15;;
18138;SDS011;9195;53.176;9.486;2022-07-18T14:57:01;16.00;;;15.30;;
18138;SDS011;9195;53.176;9.486;2022-07-18T14:59:30;15.82;;;15.13;;
18138;SDS011;9195;53.176;9.486;2022-07-18T15:01:56;15.50;;;14.80;;
18138;SDS011;9195;53.176;9.486;2022-07-18T15:04:23;15.63;;;14.93;;
18138;SDS011;9195;53.176;9.486;2022-07-18T15:06:52;15.77;;;15.07;;
18138;SDS011;9195;53.176;9.486;2022-07-18T15:09:17;15.52;;;14.82;;
18138;SDS011;9195;53.176;9.486;2022-07-18T15:11:43;15.38;;;14.68;;
18138;SDS011;9195;53.176;9.486;2022-07-18T15:14:09;16.33;;;15.63;;
18138;SDS011;9195;53.176;9.486;2022-07-18T15:16:35;16.60;;;15.85;;
18138;SDS011;9195;53.176;9.486;2022-07-18T15:19:00;16.38;;;15.68;;
18138;SDS011;9195;53.176;9.486;2022-07-18T15:21:26;16.17;;;15.48;;
18138;SDS011;9195;53.176;9.486;2022-07-18T15:23:52;16.77;;;15.98;;
18138;SDS011;9195;53.176;9.486;2022-07-18T15:26:18;15.90;;;15.20;;